createdAt,value
2022-08-17T00:00:34.937Z,100332.19
2022-08-17T00:03:06.223Z,100336.88
2022-08-17T00:05:36.720Z,100333.47
2022-08-17T00:08:05.674Z,100329.97
2022-08-17T00:10:35.492Z,100334.56
2022-08-17T00:13:07.321Z,100332.91
2022-08-17T00:15:35.190Z,100334.97
2022-08-17T00:18:03.049Z,100336.94
2022-08-17T00:20:33.444Z,100343.44
2022-08-17T00:23:05.920Z,100329.22
2022-08-17T00:25:35.473Z,100333.00
2022-08-17T00:28:03.462Z,100335.88
2022-08-17T00:30:31.654Z,100346.78
2022-08-17T00:33:23.673Z,100336.19
2022-08-17T00:35:52.473Z,100339.03
2022-08-17T00:38:20.980Z,100339.19
2022-08-17T00:40:55.962Z,100341.16
2022-08-17T00:43:32.453Z,100344.94
2022-08-17T00:46:03.097Z,100350.50
2022-08-17T00:48:31.619Z,100346.19
2022-08-17T00:51:06.606Z,100348.09
2022-08-17T00:53:39.929Z,100350.94
2022-08-17T00:56:12.971Z,100343.00
2022-08-17T00:58:42.062Z,100348.56
2022-08-17T01:01:12.467Z,100352.25
2022-08-17T01:03:50.395Z,100348.84
2022-08-17T01:06:18.908Z,100357.06
2022-08-17T01:08:47.080Z,100353.56
2022-08-17T01:11:17.300Z,100358.25
2022-08-17T01:13:47.796Z,100353.00
2022-08-17T01:16:21.527Z,100355.81
2022-08-17T01:18:51.616Z,100358.75
2022-08-17T01:21:27.948Z,100356.22
2022-08-17T01:23:57.797Z,100359.03
2022-08-17T01:26:25.952Z,100363.69
2022-08-17T01:28:55.997Z,100357.59
2022-08-17T01:31:31.533Z,100364.88
2022-08-17T01:34:02.577Z,100365.03
2022-08-17T01:36:30.684Z,100366.09
2022-08-17T01:39:00.191Z,100366.19
2022-08-17T01:41:29.350Z,100370.91
2022-08-17T01:44:02.504Z,100362.91
2022-08-17T01:46:33.512Z,100363.97
2022-08-17T01:49:02.576Z,100367.72
2022-08-17T01:51:33.032Z,100358.78
2022-08-17T01:54:06.237Z,100366.06
2022-08-17T01:56:36.272Z,100359.03
2022-08-17T01:59:05.230Z,100364.53
2022-08-17T02:01:37.147Z,100361.97
2022-08-17T02:04:08.408Z,100362.06
2022-08-17T02:06:53.661Z,100354.09
2022-08-17T02:09:25.919Z,100352.50
2022-08-17T02:11:55.009Z,100347.25
2022-08-17T02:14:25.251Z,100350.06
2022-08-17T02:16:53.973Z,100346.59
2022-08-17T02:19:22.878Z,100341.34
2022-08-17T02:21:52.803Z,100346.81
2022-08-17T02:24:59.964Z,100354.06
2022-08-17T02:27:14.995Z,100348.91
2022-08-17T02:29:42.888Z,100342.69
2022-08-17T02:32:20.994Z,100356.28
2022-08-17T02:34:56.724Z,100353.72
2022-08-17T02:37:24.864Z,100348.53
2022-08-17T02:39:54.286Z,100348.59
2022-08-17T02:42:28.602Z,100347.88
2022-08-17T02:44:56.511Z,100349.88
2022-08-17T02:47:25.168Z,100341.94
2022-08-17T02:49:55.513Z,100346.50
2022-08-17T02:52:42.534Z,100346.59
2022-08-17T02:55:15.412Z,100347.63
2022-08-17T02:57:43.512Z,100339.63
2022-08-17T03:00:25.860Z,100345.94
2022-08-17T03:02:54.185Z,100339.81
2022-08-17T03:05:23.508Z,100339.06
2022-08-17T03:07:52.250Z,100345.47
2022-08-17T03:10:22.586Z,100340.22
2022-08-17T03:12:50.654Z,100343.00
2022-08-17T03:15:21.077Z,100332.38
2022-08-17T03:17:49.663Z,100347.72
2022-08-17T03:20:18.303Z,100340.72
2022-08-17T03:22:53.431Z,100341.72
2022-08-17T03:25:25.703Z,100342.72
2022-08-17T03:27:54.232Z,100337.41
2022-08-17T03:30:23.468Z,100345.53
2022-08-17T03:32:53.239Z,100337.66
2022-08-17T03:35:23.213Z,100331.47
2022-08-17T03:37:59.965Z,100339.59
2022-08-17T03:40:55.875Z,100340.56
2022-08-17T03:43:20.384Z,100346.09
2022-08-17T03:46:10.747Z,100334.50
2022-08-17T03:49:12.454Z,100346.28
2022-08-17T03:51:58.040Z,100349.91
2022-08-17T03:54:43.621Z,100356.28
2022-08-17T03:57:13.913Z,100344.72
2022-08-17T03:59:42.611Z,100343.88
2022-08-17T04:02:14.061Z,100348.44
2022-08-17T04:04:41.994Z,100335.06
2022-08-17T04:07:09.885Z,100340.44
2022-08-17T04:09:37.857Z,100338.72
2022-08-17T04:12:07.081Z,100344.09
2022-08-17T04:14:51.855Z,100349.47
2022-08-17T04:17:23.030Z,100344.97
2022-08-17T04:19:50.958Z,100358.34
2022-08-17T04:22:32.680Z,100355.66
2022-08-17T04:25:04.393Z,100354.78
2022-08-17T04:27:32.390Z,100357.47
2022-08-17T04:30:01.855Z,100354.84
2022-08-17T04:33:04.098Z,100363.75
2022-08-17T04:35:22.508Z,100356.56
2022-08-17T04:37:50.340Z,100356.56
2022-08-17T04:40:37.045Z,100366.34
2022-08-17T04:43:07.098Z,100368.91
2022-08-17T04:45:40.845Z,100370.66
2022-08-17T04:48:23.280Z,100375.09
2022-08-17T04:50:55.858Z,100376.81
2022-08-17T04:53:23.695Z,100377.66
2022-08-17T04:55:53.127Z,100377.53
2022-08-17T04:58:21.626Z,100381.91
2022-08-17T05:00:50.905Z,100384.47
2022-08-17T05:03:18.810Z,100378.03
2022-08-17T05:05:49.485Z,100376.16
2022-08-17T05:08:18.813Z,100383.97
2022-08-17T05:10:47.961Z,100389.19
2022-08-17T05:13:19.665Z,100388.03
2022-08-17T05:15:51.208Z,100389.59
2022-08-17T05:18:19.156Z,100392.97
2022-08-17T05:20:47.160Z,100396.34
2022-08-17T05:23:16.721Z,100402.47
2022-08-17T05:25:47.916Z,100399.66
2022-08-17T05:28:16.823Z,100412.00
2022-08-17T05:30:49.229Z,100405.56
2022-08-17T05:33:21.476Z,100410.66
2022-08-17T05:35:52.243Z,100407.75
2022-08-17T05:38:22.457Z,100408.34
2022-08-17T05:40:51.308Z,100410.78
2022-08-17T05:43:21.872Z,100407.69
2022-08-17T05:45:58.599Z,100405.53
2022-08-17T05:48:35.818Z,100411.47
2022-08-17T05:51:35.585Z,100420.06
2022-08-17T05:54:16.585Z,100426.94
2022-08-17T05:57:04.261Z,100424.75
2022-08-17T05:59:41.652Z,100426.25
2022-08-17T06:02:20.027Z,100428.69
2022-08-17T06:05:02.862Z,100430.31
2022-08-17T06:07:37.915Z,100429.22
2022-08-17T06:10:13.587Z,100424.50
2022-08-17T06:12:49.152Z,100431.28
2022-08-17T06:15:28.608Z,100433.63
2022-08-17T06:18:03.186Z,100435.16
2022-08-17T06:20:39.699Z,100439.25
2022-08-17T06:23:14.300Z,100431.75
2022-08-17T06:25:49.333Z,100433.25
2022-08-17T06:28:26.814Z,100431.22
2022-08-17T06:31:01.418Z,100427.31
2022-08-17T06:33:34.377Z,100425.09
2022-08-17T06:36:16.031Z,100425.66
2022-08-17T06:38:54.186Z,100428.09
2022-08-17T06:41:31.491Z,100432.38
2022-08-17T06:44:49.901Z,100427.63
2022-08-17T06:47:09.036Z,100431.88
2022-08-17T06:49:53.221Z,100428.06
2022-08-17T06:52:45.726Z,100433.16
2022-08-17T06:55:21.402Z,100435.53
2022-08-17T06:57:53.849Z,100434.31
2022-08-17T07:04:54.908Z,100443.03
2022-08-17T07:11:51.621Z,100442.09
2022-08-17T07:14:37.772Z,100445.19
2022-08-17T07:17:10.130Z,100440.97
2022-08-17T07:19:41.405Z,100436.75
2022-08-17T07:22:22.949Z,100430.75
2022-08-17T07:24:53.683Z,100432.72
2022-08-17T07:27:27.546Z,100431.16
2022-08-17T07:29:59.384Z,100426.09
2022-08-17T07:32:31.601Z,100429.03
2022-08-17T07:35:11.295Z,100430.19
2022-08-17T07:37:40.663Z,100427.81
2022-08-17T07:40:25.819Z,100431.47
2022-08-17T07:43:23.764Z,100427.19
2022-08-17T07:46:13.172Z,100434.47
2022-08-17T07:48:43.871Z,100438.25
2022-08-17T07:51:27.021Z,100443.69
2022-08-17T07:54:13.102Z,100445.88
2022-08-17T07:56:45.866Z,100448.00
2022-08-17T07:59:18.132Z,100443.78
2022-08-17T08:02:03.571Z,100442.81
2022-08-17T08:04:59.027Z,100442.09
2022-08-17T08:07:28.611Z,100442.69
2022-08-17T08:10:08.407Z,100445.97
2022-08-17T08:12:37.932Z,100435.78
2022-08-17T08:15:19.049Z,100440.03
2022-08-17T08:17:51.958Z,100447.94
2022-08-17T08:20:52.412Z,100445.06
2022-08-17T08:23:18.836Z,100437.44
2022-08-17T08:25:59.516Z,100437.94
2022-08-17T08:28:35.164Z,100430.47
2022-08-17T08:31:13.841Z,100434.72
2022-08-17T08:33:54.989Z,100441.69
2022-08-17T08:37:12.856Z,100442.03
2022-08-17T08:39:35.479Z,100449.50
2022-08-17T08:42:10.289Z,100452.63
2022-08-17T08:45:00.953Z,100462.06
2022-08-17T08:48:05.370Z,100455.16
2022-08-17T08:50:47.618Z,100456.34
2022-08-17T08:53:23.622Z,100459.31
2022-08-17T08:55:56.882Z,100455.53
2022-08-17T08:58:41.722Z,100460.66
2022-08-17T09:01:22.306Z,100466.31
2022-08-17T09:04:23.337Z,100456.41
2022-08-17T09:07:05.055Z,100458.41
2022-08-17T09:09:41.117Z,100465.00
2022-08-17T09:12:15.397Z,100455.19
2022-08-17T09:14:57.943Z,100463.84
2022-08-17T09:17:36.155Z,100454.84
2022-08-17T09:20:27.386Z,100446.47
2022-08-17T09:23:02.744Z,100456.16
2022-08-17T09:25:36.357Z,100446.38
2022-08-17T09:28:07.560Z,100451.94
2022-08-17T09:30:42.380Z,100451.91
2022-08-17T09:33:12.569Z,100456.44
2022-08-17T09:35:46.685Z,100440.53
2022-08-17T09:38:22.379Z,100438.16
2022-08-17T09:40:56.548Z,100439.06
2022-08-17T09:43:33.479Z,100434.69
2022-08-17T09:46:04.955Z,100441.06
2022-08-17T09:48:38.768Z,100436.28
2022-08-17T09:51:14.980Z,100448.59
2022-08-17T09:53:44.708Z,100438.06
2022-08-17T09:56:27.605Z,100434.41
2022-08-17T09:59:18.054Z,100444.78
2022-08-17T10:01:50.916Z,100446.94
2022-08-17T10:04:33.240Z,100441.16
2022-08-17T10:07:11.453Z,100435.97
2022-08-17T10:09:49.705Z,100429.06
2022-08-17T10:12:32.083Z,100430.78
2022-08-17T10:15:22.525Z,100423.53
2022-08-17T10:18:07.712Z,100425.88
2022-08-17T10:21:13.267Z,100419.63
2022-08-17T10:24:05.749Z,100425.66
2022-08-17T10:26:55.400Z,100424.09
2022-08-17T10:29:29.744Z,100423.31
2022-08-17T10:32:12.386Z,100422.94
2022-08-17T10:35:03.836Z,100413.75
2022-08-17T10:37:48.578Z,100428.59
2022-08-17T10:40:27.914Z,100424.84
2022-08-17T10:42:59.690Z,100413.25
2022-08-17T10:45:34.797Z,100409.44
2022-08-17T10:48:27.865Z,100406.00
2022-08-17T10:51:02.557Z,100406.69
2022-08-17T10:53:53.261Z,100408.91
2022-08-17T10:56:38.940Z,100406.09
2022-08-17T10:59:09.016Z,100408.72
2022-08-17T11:02:13.992Z,100401.31
2022-08-17T11:04:58.431Z,100405.34
2022-08-17T11:07:43.860Z,100407.09
2022-08-17T11:10:49.940Z,100400.13
2022-08-17T11:13:33.649Z,100400.56
2022-08-17T11:16:13.691Z,100392.03
2022-08-17T11:18:58.016Z,100398.03
2022-08-17T11:21:41.706Z,100394.59
2022-08-17T11:24:18.422Z,100395.03
2022-08-17T11:27:01.831Z,100399.81
2022-08-17T11:29:36.226Z,100401.97
2022-08-17T11:32:11.544Z,100398.41
2022-08-17T11:34:40.999Z,100407.63
2022-08-17T11:37:33.974Z,100409.09
2022-08-17T11:40:15.444Z,100404.59
2022-08-17T11:43:08.966Z,100392.50
2022-08-17T11:46:04.042Z,100392.91
2022-08-17T11:48:57.031Z,100393.50
2022-08-17T11:51:45.881Z,100401.06
2022-08-17T11:54:38.931Z,100404.09
2022-08-17T11:57:40.410Z,100396.06
2022-08-17T12:00:10.953Z,100399.41
2022-08-17T12:02:48.277Z,100391.78
2022-08-17T12:05:33.362Z,100380.53
2022-08-17T12:08:24.134Z,100386.41
2022-08-17T12:11:03.972Z,100395.16
2022-08-17T12:13:39.403Z,100387.41
2022-08-17T12:16:09.365Z,100388.16
2022-08-17T12:18:47.476Z,100389.84
2022-08-17T12:21:49.853Z,100390.38
2022-08-17T12:24:31.315Z,100401.47
2022-08-17T12:27:01.295Z,100393.06
2022-08-17T12:29:38.931Z,100391.16
2022-08-17T12:32:13.936Z,100391.56
2022-08-17T12:34:44.081Z,100384.19
2022-08-17T12:37:19.018Z,100381.06
2022-08-17T12:39:57.739Z,100387.47
2022-08-17T12:42:29.368Z,100381.78
2022-08-17T12:44:57.684Z,100389.84
2022-08-17T12:47:26.608Z,100379.69
2022-08-17T12:50:08.374Z,100383.63
2022-08-17T12:53:02.003Z,100377.09
2022-08-17T12:55:36.611Z,100373.34
2022-08-17T12:58:05.305Z,100370.97
2022-08-17T13:00:37.625Z,100370.31
2022-08-17T13:03:09.637Z,100369.97
2022-08-17T13:05:43.616Z,100357.72
2022-08-17T13:08:17.713Z,100356.53
2022-08-17T13:10:56.556Z,100349.28
2022-08-17T13:13:26.412Z,100350.50
2022-08-17T13:15:57.080Z,100357.38
2022-08-17T13:18:41.877Z,100349.78
2022-08-17T13:21:22.209Z,100356.72
2022-08-17T13:24:01.311Z,100355.97
2022-08-17T13:26:33.965Z,100349.22
2022-08-17T13:29:03.595Z,100346.47
2022-08-17T13:31:51.165Z,100343.44
2022-08-17T13:34:34.658Z,100326.72
2022-08-17T13:37:27.014Z,100338.72
2022-08-17T13:39:57.958Z,100334.66
2022-08-17T13:42:52.022Z,100324.59
2022-08-17T13:45:38.944Z,100332.41
2022-08-17T13:48:13.537Z,100322.81
2022-08-17T13:50:45.150Z,100334.72
2022-08-17T13:53:18.577Z,100331.78
2022-08-17T13:55:54.390Z,100335.88
2022-08-17T13:58:25.137Z,100333.97
2022-08-17T14:00:53.485Z,100333.78
2022-08-17T14:03:21.719Z,100324.50
2022-08-17T14:05:50.980Z,100322.31
2022-08-17T14:08:20.764Z,100327.28
2022-08-17T14:10:58.250Z,100324.78
2022-08-17T14:13:26.115Z,100323.69
2022-08-17T14:15:56.528Z,100326.19
2022-08-17T14:18:35.601Z,100332.25
2022-08-17T14:21:13.155Z,100326.00
2022-08-17T14:23:41.108Z,100323.31
2022-08-17T14:26:18.741Z,100320.69
2022-08-17T14:28:56.511Z,100327.44
2022-08-17T14:31:25.120Z,100318.16
2022-08-17T14:33:53.115Z,100323.06
2022-08-17T14:36:21.034Z,100320.56
2022-08-17T14:38:48.861Z,100327.78
2022-08-17T14:41:22.046Z,100328.56
2022-08-17T14:43:52.969Z,100320.22
2022-08-17T14:46:21.448Z,100321.16
2022-08-17T14:48:55.135Z,100335.53
2022-08-17T14:51:30.007Z,100320.06
2022-08-17T14:53:58.630Z,100316.97
2022-08-17T14:56:28.520Z,100322.69
2022-08-17T14:59:03.186Z,100316.16
2022-08-17T15:01:31.178Z,100312.38
2022-08-17T15:03:59.448Z,100304.44
2022-08-17T15:06:27.300Z,100310.97
2022-08-17T15:08:55.736Z,100305.63
2022-08-17T15:11:23.603Z,100301.34
2022-08-17T15:13:53.397Z,100310.50
2022-08-17T15:16:21.619Z,100314.44
2022-08-17T15:18:50.181Z,100306.88
2022-08-17T15:21:18.317Z,100312.56
2022-08-17T15:23:46.680Z,100298.06
2022-08-17T15:26:14.649Z,100291.88
2022-08-17T15:28:42.554Z,100292.25
2022-08-17T15:31:11.776Z,100290.84
2022-08-17T15:33:39.985Z,100291.84
2022-08-17T15:36:09.322Z,100291.84
2022-08-17T15:38:39.399Z,100282.22
2022-08-17T15:41:08.656Z,100287.00
2022-08-17T15:43:37.227Z,100283.06
2022-08-17T15:46:10.538Z,100289.59
2022-08-17T15:48:42.192Z,100290.25
2022-08-17T15:51:13.958Z,100294.16
2022-08-17T15:53:43.925Z,100286.88
2022-08-17T15:56:13.709Z,100290.47
2022-08-17T15:58:42.514Z,100284.19
2022-08-17T16:01:17.127Z,100282.56
2022-08-17T16:04:04.821Z,100273.25
2022-08-17T16:06:37.277Z,100274.59
2022-08-17T16:09:05.312Z,100274.06
2022-08-17T16:11:33.162Z,100264.59
2022-08-17T16:14:01.023Z,100255.78
2022-08-17T16:16:31.274Z,100253.38
2022-08-17T16:19:00.503Z,100253.00
2022-08-17T16:21:42.834Z,100240.59
2022-08-17T16:24:13.103Z,100252.94
2022-08-17T16:26:41.747Z,100245.50
2022-08-17T16:29:10.343Z,100243.91
2022-08-17T16:31:38.603Z,100248.34
2022-08-17T16:34:17.717Z,100248.97
2022-08-17T16:36:55.615Z,100241.38
2022-08-17T16:39:29.146Z,100243.75
2022-08-17T16:41:57.796Z,100233.69
2022-08-17T16:44:31.681Z,100232.09
2022-08-17T16:47:01.263Z,100244.00
2022-08-17T16:49:37.451Z,100247.84
2022-08-17T16:52:10.022Z,100247.94
2022-08-17T16:54:40.632Z,100242.66
2022-08-17T16:57:08.669Z,100234.66
2022-08-17T16:59:40.935Z,100231.13
2022-08-17T17:02:14.284Z,100232.16
2022-08-17T17:04:51.092Z,100227.63
2022-08-17T17:07:37.268Z,100235.06
2022-08-17T17:10:09.560Z,100224.13
2022-08-17T17:13:03.608Z,100228.66
2022-08-17T17:15:40.411Z,100237.03
2022-08-17T17:18:14.799Z,100235.19
2022-08-17T17:20:54.179Z,100234.22
2022-08-17T17:23:36.542Z,100229.63
2022-08-17T17:26:15.360Z,100243.22
2022-08-17T17:28:52.133Z,100248.75
2022-08-17T17:31:23.858Z,100248.56
2022-08-17T17:33:55.947Z,100235.03
2022-08-17T17:36:30.565Z,100243.09
2022-08-17T17:39:04.255Z,100247.44
2022-08-17T17:41:37.898Z,100243.41
2022-08-17T17:44:12.247Z,100238.66
2022-08-17T17:46:45.078Z,100228.44
2022-08-17T17:49:14.321Z,100246.59
2022-08-17T17:52:06.700Z,100247.25
2022-08-17T17:54:55.641Z,100243.50
2022-08-17T17:57:33.716Z,100240.94
2022-08-17T18:00:09.345Z,100247.09
2022-08-17T18:02:54.440Z,100250.56
2022-08-17T18:05:36.344Z,100267.66
2022-08-17T18:08:16.470Z,100270.31
2022-08-17T18:10:51.136Z,100270.88
2022-08-17T18:13:29.219Z,100268.84
2022-08-17T18:16:00.771Z,100265.91
2022-08-17T18:18:40.773Z,100265.59
2022-08-17T18:21:16.805Z,100268.03
2022-08-17T18:23:53.861Z,100273.06
2022-08-17T18:26:55.328Z,100262.78
2022-08-17T18:29:42.215Z,100269.94
2022-08-17T18:32:19.338Z,100264.38
2022-08-17T18:34:50.214Z,100256.72
2022-08-17T18:37:33.740Z,100262.72
2022-08-17T18:40:35.431Z,100260.50
2022-08-17T18:43:09.526Z,100261.06
2022-08-17T18:45:54.559Z,100262.44
2022-08-17T18:48:33.147Z,100261.09
2022-08-17T18:51:40.659Z,100266.09
2022-08-17T18:54:21.889Z,100271.34
2022-08-17T18:56:54.147Z,100271.84
2022-08-17T18:59:40.063Z,100272.38
2022-08-17T19:02:44.620Z,100272.91
2022-08-17T19:05:18.790Z,100278.00
2022-08-17T19:07:49.121Z,100288.44
2022-08-17T19:10:26.371Z,100277.06
2022-08-17T19:13:12.690Z,100285.63
2022-08-17T19:15:46.646Z,100285.25
2022-08-17T19:18:39.469Z,100285.63
2022-08-17T19:21:12.343Z,100284.28
2022-08-17T19:23:53.516Z,100276.47
2022-08-17T19:26:53.853Z,100264.22
2022-08-17T19:29:26.181Z,100274.72
2022-08-17T19:31:59.518Z,100276.13
2022-08-17T19:34:33.475Z,100272.16
2022-08-17T19:37:09.038Z,100272.78
2022-08-17T19:39:44.403Z,100272.28
2022-08-17T19:42:17.123Z,100263.84
2022-08-17T19:44:56.380Z,100262.63
2022-08-17T19:47:53.735Z,100267.81
2022-08-17T19:50:31.458Z,100268.44
2022-08-17T19:53:09.952Z,100268.03
2022-08-17T19:55:51.130Z,100265.78
2022-08-17T19:58:33.249Z,100269.88
2022-08-17T20:01:06.913Z,100266.75
2022-08-17T20:03:41.363Z,100278.00
2022-08-17T20:06:13.998Z,100273.06
2022-08-17T20:08:49.893Z,100273.63
2022-08-17T20:11:23.012Z,100272.16
2022-08-17T20:14:05.247Z,100277.09
2022-08-17T20:16:37.698Z,100281.13
2022-08-17T20:19:12.434Z,100285.84
2022-08-17T20:21:54.028Z,100284.34
2022-08-17T20:24:28.583Z,100280.19
2022-08-17T20:27:02.847Z,100292.44
2022-08-17T20:29:40.247Z,100288.31
2022-08-17T20:32:27.923Z,100288.66
2022-08-17T20:35:08.128Z,100288.16
2022-08-17T20:37:43.372Z,100284.91
2022-08-17T20:40:39.460Z,100287.97
2022-08-17T20:43:51.677Z,100287.56
2022-08-17T20:46:31.987Z,100282.59
2022-08-17T20:49:25.823Z,100289.38
2022-08-17T20:52:05.090Z,100280.78
2022-08-17T20:54:51.561Z,100279.38
2022-08-17T20:57:49.239Z,100285.25
2022-08-17T21:00:47.138Z,100282.97
2022-08-17T21:03:51.070Z,100289.84
2022-08-17T21:06:23.869Z,100291.06
2022-08-17T21:08:57.777Z,100289.63
2022-08-17T21:11:57.113Z,100297.72
2022-08-17T21:15:00.066Z,100299.47
2022-08-17T21:17:49.953Z,100296.53
2022-08-17T21:20:40.171Z,100296.09
2022-08-17T21:23:47.038Z,100298.53
2022-08-17T21:26:30.596Z,100301.94
2022-08-17T21:29:29.689Z,100306.91
2022-08-17T21:32:24.221Z,100306.25
2022-08-17T21:35:22.770Z,100310.03
2022-08-17T21:37:54.296Z,100315.72
2022-08-17T21:40:27.641Z,100313.19
2022-08-17T21:42:58.269Z,100313.31
2022-08-17T21:45:30.237Z,100306.22
2022-08-17T21:48:13.189Z,100309.16
2022-08-17T21:50:44.176Z,100308.47
2022-08-17T21:53:19.572Z,100310.34
2022-08-17T21:55:51.305Z,100304.34
2022-08-17T21:58:30.721Z,100312.03
2022-08-17T22:01:23.665Z,100307.06
2022-08-17T22:04:20.304Z,100311.91
2022-08-17T22:06:56.822Z,100304.91
2022-08-17T22:09:27.908Z,100313.38
2022-08-17T22:12:05.936Z,100311.81
2022-08-17T22:14:53.095Z,100308.66
2022-08-17T22:17:25.070Z,100313.50
2022-08-17T22:22:30.400Z,100297.09
2022-08-17T22:25:04.256Z,100314.53
2022-08-17T22:27:49.949Z,100314.81
2022-08-17T22:30:26.574Z,100321.44
2022-08-17T22:32:55.885Z,100322.72
2022-08-17T22:35:37.459Z,100326.56
2022-08-17T22:38:32.554Z,100333.94
2022-08-17T22:41:31.485Z,100333.47
2022-08-17T22:44:08.807Z,100329.22
2022-08-17T22:46:41.752Z,100325.91
2022-08-17T22:49:10.343Z,100329.75
2022-08-17T22:51:38.527Z,100326.38
2022-08-17T22:54:36.507Z,100332.00
2022-08-17T22:57:29.524Z,100328.69
2022-08-17T22:59:59.665Z,100331.81
2022-08-17T23:02:29.487Z,100323.88
2022-08-17T23:05:22.113Z,100329.56
2022-08-17T23:07:53.864Z,100322.59
2022-08-17T23:10:22.358Z,100326.59
2022-08-17T23:12:52.366Z,100324.06
2022-08-17T23:15:22.080Z,100326.19
2022-08-17T23:17:50.723Z,100322.88
2022-08-17T23:20:19.397Z,100325.97
2022-08-17T23:22:51.759Z,100320.72
2022-08-17T23:25:27.266Z,100316.56
2022-08-17T23:27:55.790Z,100318.75
2022-08-17T23:30:30.791Z,100319.00
2022-08-17T23:33:01.267Z,100318.41
2022-08-17T23:35:40.508Z,100309.72
2022-08-17T23:38:10.451Z,100314.66
2022-08-17T23:40:40.126Z,100311.44
2022-08-17T23:43:23.881Z,100317.19
2022-08-17T23:45:57.820Z,100306.03
2022-08-17T23:48:34.973Z,100306.34
2022-08-17T23:51:09.223Z,100305.66
2022-08-17T23:53:40.218Z,100305.06
2022-08-17T23:56:11.482Z,100308.00
2022-08-17T23:58:42.330Z,100311.75
